SKCG/CTG METAR and TAF weather

Enter ICAO airport designator
Station Type Date Time Source
SKCG METAR 2018/12/10 09:00 UTC NOAA

SKCG 100900Z 15003KT 8000 FEW013 25/24 A2979 RMK HZ


Station Type Date Time Source
SKCG Decoded METAR 2018/12/10 09:00 UTC NOAA

Cartagena / Rafael Nunez, Colombia (SKCG) 10-27N 075-31W 12M
Dec 10, 2018 - 04:00 AM EST / 2018.12.10 0900 UTC
Wind: from the SSE (150 degrees) at 3 MPH (3 KT):0
Visibility: 4 mile(s):0
Sky conditions: mostly clear
Temperature: 77 F (25 C)
Dew Point: 75 F (24 C)
Relative Humidity: 94%
Pressure (altimeter): 29.79 in. Hg (1008 hPa)
ob: SKCG 100900Z 15003KT 8000 FEW013 25/24 A2979 RMK HZ
cycle: 9

Station Type Date Time Source
SKCG TAF 2018/12/10 06:45 UTC NOAA

TAF SKCG 100500Z 1006/1106 01006KT 9999 FEW020
BECMG 1014/1016 34012KT TX33/1018Z TN23/1011Z


Example: see airport list